createdAt,value
2018-08-23T00:00:53.252Z,12.28
2018-08-23T00:05:54.154Z,12.63
2018-08-23T00:10:51.677Z,18.52
2018-08-23T00:15:48.801Z,13.78
2018-08-23T00:20:45.456Z,14.18
2018-08-23T00:25:42.309Z,10.98
2018-08-23T00:30:39.025Z,11.43
2018-08-23T00:35:37.049Z,13.78
2018-08-23T00:40:35.760Z,13.30
2018-08-23T00:45:32.622Z,13.03
2018-08-23T00:51:02.866Z,12.05
2018-08-23T00:56:11.141Z,12.23
2018-08-23T01:01:07.975Z,12.25
2018-08-23T01:06:05.126Z,11.53
2018-08-23T01:11:02.642Z,13.60
2018-08-23T01:15:59.852Z,11.53
2018-08-23T01:20:56.536Z,11.15
2018-08-23T01:25:53.467Z,11.85
2018-08-23T01:30:50.315Z,11.00
2018-08-23T01:35:48.738Z,11.12
2018-08-23T01:40:45.757Z,15.38
2018-08-23T01:45:42.688Z,16.55
2018-08-23T01:50:39.562Z,12.55
2018-08-23T01:55:36.468Z,12.85
2018-08-23T02:00:34.651Z,11.60
2018-08-23T02:05:31.928Z,13.25
2018-08-23T02:10:28.685Z,11.95
2018-08-23T02:15:29.665Z,13.45
2018-08-23T02:20:27.327Z,11.57
2018-08-23T02:25:24.648Z,12.13
2018-08-23T02:30:28.620Z,11.78
2018-08-23T02:35:25.339Z,13.38
2018-08-23T02:40:22.242Z,12.68
2018-08-23T02:45:19.726Z,11.33
2018-08-23T02:50:16.928Z,10.95
2018-08-23T02:55:13.840Z,12.90
2018-08-23T03:00:10.518Z,13.35
2018-08-23T03:05:08.300Z,12.33
2018-08-23T03:10:05.014Z,16.45
2018-08-23T03:15:02.226Z,13.25
2018-08-23T03:20:00.679Z,16.52
2018-08-23T03:24:59.009Z,12.43
2018-08-23T03:29:55.736Z,12.53
2018-08-23T03:34:52.612Z,13.55
2018-08-23T03:39:49.379Z,15.32
2018-08-23T03:44:46.360Z,19.35
2018-08-23T03:49:43.609Z,13.35
2018-08-23T03:54:40.313Z,13.70
2018-08-23T03:59:37.220Z,15.10
2018-08-23T04:04:33.572Z,14.35
2018-08-23T04:09:30.436Z,13.85
2018-08-23T04:14:27.247Z,16.45
2018-08-23T04:19:24.869Z,20.43
2018-08-23T04:24:21.526Z,16.30
2018-08-23T04:29:28.725Z,13.10
2018-08-23T04:34:25.473Z,15.38
2018-08-23T04:39:22.453Z,13.60
2018-08-23T04:44:19.320Z,14.10
2018-08-23T04:49:16.383Z,15.28
2018-08-23T04:54:13.103Z,12.80
2018-08-23T04:59:10.004Z,16.37
2018-08-23T05:04:07.194Z,15.50
2018-08-23T05:09:06.039Z,15.90
2018-08-23T05:14:03.032Z,16.90
2018-08-23T05:18:59.982Z,19.32
2018-08-23T05:24:15.806Z,16.87
2018-08-23T05:29:12.585Z,16.12
2018-08-23T05:34:09.604Z,25.50
2018-08-23T05:39:07.044Z,16.73
2018-08-23T05:44:11.132Z,19.70
2018-08-23T05:49:07.938Z,15.08
2018-08-23T05:54:05.043Z,18.57
2018-08-23T05:59:10.805Z,22.32
2018-08-23T06:04:07.546Z,17.45
2018-08-23T06:09:07.103Z,13.68
2018-08-23T06:14:03.842Z,14.70
2018-08-23T06:19:00.904Z,11.53
2018-08-23T06:24:02.272Z,12.78
2018-08-23T06:28:58.964Z,12.37
2018-08-23T06:33:56.212Z,11.00
2018-08-23T06:38:59.936Z,14.38
2018-08-23T06:43:56.686Z,11.08
2018-08-23T06:48:54.012Z,11.30
2018-08-23T06:53:52.210Z,12.88
2018-08-23T06:58:49.147Z,9.88
2018-08-23T07:03:46.076Z,9.48
2018-08-23T07:08:42.997Z,14.60
2018-08-23T07:13:39.737Z,9.53
2018-08-23T07:18:36.642Z,11.73
2018-08-23T07:23:34.137Z,14.20
2018-08-23T07:28:31.698Z,11.83
2018-08-23T07:33:29.910Z,9.28
2018-08-23T07:38:26.954Z,11.18
2018-08-23T07:43:23.693Z,9.20
2018-08-23T07:48:20.555Z,9.63
2018-08-23T07:53:18.828Z,8.18
2018-08-23T07:58:15.431Z,9.25
2018-08-23T08:03:14.422Z,11.12
2018-08-23T08:08:12.169Z,10.88
2018-08-23T08:13:09.079Z,10.15
2018-08-23T08:18:08.433Z,11.18
2018-08-23T08:23:05.541Z,15.10
2018-08-23T08:28:02.212Z,12.75
2018-08-23T08:32:59.279Z,18.35
2018-08-23T08:37:55.999Z,11.48
2018-08-23T08:42:52.988Z,12.03
2018-08-23T08:47:49.716Z,11.90
2018-08-23T08:52:46.482Z,13.58
2018-08-23T08:57:45.573Z,12.43
2018-08-23T09:02:42.464Z,11.38
2018-08-23T09:07:41.732Z,15.58
2018-08-23T09:12:44.484Z,12.70
2018-08-23T09:17:43.043Z,12.58
2018-08-23T09:22:42.314Z,14.80
2018-08-23T09:27:39.227Z,12.98
2018-08-23T09:32:36.215Z,10.95
2018-08-23T09:37:36.891Z,8.98
2018-08-23T09:42:34.936Z,17.62
2018-08-23T09:47:31.815Z,8.28
2018-08-23T09:52:34.512Z,9.20
2018-08-23T09:57:31.203Z,7.53
2018-08-23T10:02:33.599Z,9.25
2018-08-23T10:07:36.252Z,8.25
2018-08-23T10:12:40.210Z,9.05
2018-08-23T10:17:42.554Z,11.28
2018-08-23T10:22:45.802Z,9.58
2018-08-23T10:27:42.451Z,9.73
2018-08-23T10:32:39.401Z,6.05
2018-08-23T10:37:36.047Z,7.10
2018-08-23T10:42:32.906Z,10.28
2018-08-23T10:47:35.807Z,10.78
2018-08-23T10:52:32.456Z,9.88
2018-08-23T10:57:29.281Z,9.65
2018-08-23T11:07:49.907Z,11.88
2018-08-23T11:12:53.366Z,9.75
2018-08-23T11:17:56.198Z,9.25
2018-08-23T11:22:52.906Z,9.40
2018-08-23T11:27:50.105Z,8.73
2018-08-23T11:32:47.144Z,8.50
2018-08-23T11:37:44.254Z,8.98
2018-08-23T11:42:40.949Z,13.50
2018-08-23T11:47:37.855Z,5.62
2018-08-23T11:52:34.582Z,6.78
2018-08-23T11:57:31.576Z,11.08
2018-08-23T12:02:28.327Z,13.70
2018-08-23T12:07:25.296Z,10.72
2018-08-23T12:12:22.026Z,8.60
2018-08-23T12:17:19.749Z,8.68
2018-08-23T12:22:16.561Z,10.30
2018-08-23T12:27:13.688Z,7.35
2018-08-23T12:32:10.644Z,6.67
2018-08-23T12:37:13.229Z,5.47
2018-08-23T12:42:15.887Z,6.37
2018-08-23T12:47:12.638Z,5.97
2018-08-23T12:52:09.655Z,6.35
2018-08-23T12:57:06.623Z,8.88
2018-08-23T13:02:03.585Z,8.93
2018-08-23T13:07:00.580Z,5.87
2018-08-23T13:11:56.947Z,7.42
2018-08-23T13:16:54.045Z,6.75
2018-08-23T13:21:55.546Z,8.30
2018-08-23T13:26:52.222Z,7.92
2018-08-23T13:31:49.358Z,5.08
2018-08-23T13:36:46.171Z,6.58
2018-08-23T13:41:43.182Z,4.78
2018-08-23T13:46:39.929Z,6.65
2018-08-23T13:51:36.869Z,6.55
2018-08-23T13:56:33.641Z,5.70
2018-08-23T14:01:30.702Z,5.60
2018-08-23T14:06:27.451Z,6.12
2018-08-23T14:11:24.416Z,9.55
2018-08-23T14:16:22.288Z,7.55
2018-08-23T14:21:19.016Z,6.72
2018-08-23T14:26:16.026Z,5.97
2018-08-23T14:31:12.801Z,7.85
2018-08-23T14:36:09.737Z,6.92
2018-08-23T14:41:06.427Z,5.83
2018-08-23T14:46:09.393Z,5.72
2018-08-23T14:51:06.149Z,5.55
2018-08-23T14:56:08.857Z,5.78
2018-08-23T15:01:05.660Z,5.58
2018-08-23T15:06:02.794Z,6.25
2018-08-23T15:10:59.448Z,5.05
2018-08-23T15:15:56.403Z,5.20
2018-08-23T15:20:53.795Z,5.05
2018-08-23T15:25:50.726Z,5.55
2018-08-23T15:30:47.404Z,4.90
2018-08-23T15:35:44.328Z,5.80
2018-08-23T15:40:41.043Z,5.47
2018-08-23T15:45:37.974Z,5.70
2018-08-23T15:50:34.778Z,6.15
2018-08-23T15:55:31.863Z,6.22
2018-08-23T16:00:33.249Z,5.22
2018-08-23T16:05:30.019Z,4.87
2018-08-23T16:10:27.004Z,4.83
2018-08-23T16:15:24.273Z,4.22
2018-08-23T16:20:27.233Z,4.45
2018-08-23T16:25:24.678Z,4.62
2018-08-23T16:30:21.702Z,7.10
2018-08-23T16:35:18.436Z,5.35
2018-08-23T16:40:21.119Z,4.95
2018-08-23T16:45:17.816Z,5.17
2018-08-23T16:50:14.870Z,5.42
2018-08-23T16:55:11.587Z,5.45
2018-08-23T17:00:08.686Z,4.80
2018-08-23T17:05:05.767Z,5.58
2018-08-23T17:10:02.792Z,5.67
2018-08-23T17:14:59.671Z,5.95
2018-08-23T17:19:56.561Z,6.83
2018-08-23T17:24:53.626Z,6.17
2018-08-23T17:29:51.273Z,6.60
2018-08-23T17:34:48.438Z,6.85
2018-08-23T17:39:45.246Z,7.45
2018-08-23T17:44:42.245Z,6.65
2018-08-23T17:49:39.011Z,6.45
2018-08-23T17:54:35.886Z,6.83
2018-08-23T17:59:32.665Z,6.60
2018-08-23T18:04:29.586Z,7.90
2018-08-23T18:09:26.279Z,7.90
2018-08-23T18:14:23.015Z,7.03
2018-08-23T18:19:19.854Z,6.22
2018-08-23T18:24:16.870Z,6.20
2018-08-23T18:29:13.625Z,5.58
2018-08-23T18:34:10.444Z,6.05
2018-08-23T18:39:07.643Z,7.00
2018-08-23T18:44:04.760Z,6.37
2018-08-23T18:49:01.419Z,5.95
2018-08-23T18:53:58.770Z,6.55
2018-08-23T18:58:55.808Z,6.28
2018-08-23T19:03:53.346Z,6.00
2018-08-23T19:08:50.057Z,8.25
2018-08-23T19:13:47.161Z,8.48
2018-08-23T19:18:44.734Z,6.95
2018-08-23T19:23:41.697Z,9.68
2018-08-23T19:28:38.422Z,7.97
2018-08-23T19:33:35.330Z,7.65
2018-08-23T19:38:32.080Z,7.42
2018-08-23T19:43:28.920Z,7.65
2018-08-23T19:48:25.771Z,7.97
2018-08-23T19:53:22.644Z,9.93
2018-08-23T19:58:19.404Z,8.45
2018-08-23T20:03:16.474Z,7.95
2018-08-23T20:08:13.572Z,8.18
2018-08-23T20:13:10.511Z,8.33
2018-08-23T20:18:07.303Z,8.28
2018-08-23T20:23:05.198Z,8.03
2018-08-23T20:28:01.983Z,8.45
2018-08-23T20:32:59.100Z,8.48
2018-08-23T20:37:55.771Z,9.43
2018-08-23T20:42:52.681Z,9.20
2018-08-23T20:47:49.411Z,8.25
2018-08-23T20:52:46.905Z,10.08
2018-08-23T20:57:43.566Z,10.58
2018-08-23T21:02:40.429Z,9.63
2018-08-23T21:07:37.123Z,11.57
2018-08-23T21:12:34.353Z,9.73
2018-08-23T21:17:31.094Z,11.18
2018-08-23T21:22:27.984Z,10.53
2018-08-23T21:27:24.645Z,10.78
2018-08-23T21:32:21.589Z,10.38
2018-08-23T21:37:19.467Z,10.55
2018-08-23T21:42:16.420Z,10.85
2018-08-23T21:47:13.172Z,11.53
2018-08-23T21:52:10.140Z,10.48
2018-08-23T21:57:06.845Z,10.35
2018-08-23T22:02:09.545Z,10.45
2018-08-23T22:07:06.300Z,10.15
2018-08-23T22:12:03.337Z,10.30
2018-08-23T22:17:00.067Z,10.13
2018-08-23T22:21:56.941Z,9.98
2018-08-23T22:26:53.679Z,10.15
2018-08-23T22:31:50.534Z,10.45
2018-08-23T22:36:47.448Z,10.75
2018-08-23T22:41:44.387Z,10.20
2018-08-23T22:46:41.118Z,10.18
2018-08-23T22:51:38.102Z,10.38
2018-08-23T22:56:34.746Z,9.75
2018-08-23T23:01:31.656Z,9.18
2018-08-23T23:06:28.434Z,9.88
2018-08-23T23:11:25.439Z,14.78
2018-08-23T23:16:22.232Z,10.80
2018-08-23T23:21:19.153Z,12.13
2018-08-23T23:26:15.876Z,10.75
2018-08-23T23:31:12.981Z,11.97
2018-08-23T23:36:09.662Z,10.28
2018-08-23T23:41:07.319Z,12.37
2018-08-23T23:46:04.029Z,8.27
2018-08-23T23:51:01.125Z,6.37
2018-08-23T23:55:57.825Z,7.53
